sensor_id;sensor_type;location;lat;lon;timestamp;pressure;altitude;pressure_sealevel;temperature;humidity
24858;BME280;12935;50.782;6.074;2023-10-13T00:02:06;99255.06;;;18.19;100.00
24858;BME280;12935;50.782;6.074;2023-10-13T00:04:32;99248.56;;;18.13;100.00
24858;BME280;12935;50.782;6.074;2023-10-13T00:07:01;99246.56;;;18.13;100.00
24858;BME280;12935;50.782;6.074;2023-10-13T00:09:28;99247.34;;;18.14;100.00
24858;BME280;12935;50.782;6.074;2023-10-13T00:12:03;99248.75;;;18.18;100.00
24858;BME280;12935;50.782;6.074;2023-10-13T00:14:30;99247.47;;;18.10;100.00
24858;BME280;12935;50.782;6.074;2023-10-13T00:17:04;99241.63;;;18.08;100.00
24858;BME280;12935;50.782;6.074;2023-10-13T00:22:17;99228.63;;;18.18;100.00
24858;BME280;12935;50.782;6.074;2023-10-13T00:24:47;99222.66;;;18.19;100.00
24858;BME280;12935;50.782;6.074;2023-10-13T00:27:17;99224.06;;;18.24;100.00
24858;BME280;12935;50.782;6.074;2023-10-13T00:30:00;99222.97;;;18.21;100.00
24858;BME280;12935;50.782;6.074;2023-10-13T00:32:47;99212.81;;;18.18;100.00
24858;BME280;12935;50.782;6.074;2023-10-13T00:35:17;99211.16;;;18.21;100.00
24858;BME280;12935;50.782;6.074;2023-10-13T00:37:57;99211.78;;;18.25;100.00
24858;BME280;12935;50.782;6.074;2023-10-13T00:40:29;99211.63;;;18.29;100.00
24858;BME280;12935;50.782;6.074;2023-10-13T00:42:54;99201.00;;;18.27;100.00
24858;BME280;12935;50.782;6.074;2023-10-13T00:45:21;99200.22;;;18.17;100.00
24858;BME280;12935;50.782;6.074;2023-10-13T00:47:47;99198.66;;;18.16;100.00
24858;BME280;12935;50.782;6.074;2023-10-13T00:50:21;99194.88;;;18.23;100.00
24858;BME280;12935;50.782;6.074;2023-10-13T00:52:49;99193.19;;;18.26;100.00
24858;BME280;12935;50.782;6.074;2023-10-13T00:55:18;99189.50;;;18.29;100.00
24858;BME280;12935;50.782;6.074;2023-10-13T00:57:43;99197.34;;;18.30;100.00
24858;BME280;12935;50.782;6.074;2023-10-13T01:00:12;99186.75;;;18.29;100.00
24858;BME280;12935;50.782;6.074;2023-10-13T01:02:50;99179.81;;;18.24;100.00
24858;BME280;12935;50.782;6.074;2023-10-13T01:05:25;99173.19;;;18.21;100.00
24858;BME280;12935;50.782;6.074;2023-10-13T01:07:51;99175.84;;;18.25;100.00
24858;BME280;12935;50.782;6.074;2023-10-13T01:10:20;99171.69;;;18.30;100.00
24858;BME280;12935;50.782;6.074;2023-10-13T01:12:51;99160.63;;;18.30;100.00
24858;BME280;12935;50.782;6.074;2023-10-13T01:15:18;99164.47;;;18.32;100.00
24858;BME280;12935;50.782;6.074;2023-10-13T01:17:46;99156.81;;;18.36;100.00
24858;BME280;12935;50.782;6.074;2023-10-13T01:20:15;99157.28;;;18.35;100.00
24858;BME280;12935;50.782;6.074;2023-10-13T01:22:50;99148.97;;;18.35;100.00
24858;BME280;12935;50.782;6.074;2023-10-13T01:25:25;99152.38;;;18.39;100.00
24858;BME280;12935;50.782;6.074;2023-10-13T01:27:54;99152.50;;;18.35;100.00
24858;BME280;12935;50.782;6.074;2023-10-13T01:30:20;99142.81;;;18.31;100.00
24858;BME280;12935;50.782;6.074;2023-10-13T01:32:53;99148.00;;;18.19;100.00
24858;BME280;12935;50.782;6.074;2023-10-13T01:35:19;99146.00;;;18.20;100.00
24858;BME280;12935;50.782;6.074;2023-10-13T01:37:50;99148.94;;;18.26;100.00
24858;BME280;12935;50.782;6.074;2023-10-13T01:40:15;99143.25;;;18.29;100.00
24858;BME280;12935;50.782;6.074;2023-10-13T01:42:44;99136.50;;;18.30;100.00
24858;BME280;12935;50.782;6.074;2023-10-13T01:45:10;99130.97;;;18.30;100.00
24858;BME280;12935;50.782;6.074;2023-10-13T01:47:39;99126.97;;;18.31;100.00
24858;BME280;12935;50.782;6.074;2023-10-13T01:50:06;99127.75;;;18.32;100.00
24858;BME280;12935;50.782;6.074;2023-10-13T01:52:46;99123.63;;;18.36;100.00
24858;BME280;12935;50.782;6.074;2023-10-13T01:55:12;99119.31;;;18.35;100.00
24858;BME280;12935;50.782;6.074;2023-10-13T01:57:39;99122.41;;;18.37;100.00
24858;BME280;12935;50.782;6.074;2023-10-13T02:00:07;99104.91;;;18.40;100.00
24858;BME280;12935;50.782;6.074;2023-10-13T02:02:45;99112.09;;;18.38;100.00
24858;BME280;12935;50.782;6.074;2023-10-13T02:05:11;99107.81;;;18.37;100.00
24858;BME280;12935;50.782;6.074;2023-10-13T02:07:37;99100.09;;;18.32;100.00
24858;BME280;12935;50.782;6.074;2023-10-13T02:10:04;99096.88;;;18.33;100.00
24858;BME280;12935;50.782;6.074;2023-10-13T02:12:32;99092.88;;;18.34;100.00
24858;BME280;12935;50.782;6.074;2023-10-13T02:15:12;99100.28;;;18.37;100.00
24858;BME280;12935;50.782;6.074;2023-10-13T02:17:38;99095.84;;;18.40;100.00
24858;BME280;12935;50.782;6.074;2023-10-13T02:20:08;99091.22;;;18.46;100.00
24858;BME280;12935;50.782;6.074;2023-10-13T02:22:35;99090.00;;;18.47;100.00
24858;BME280;12935;50.782;6.074;2023-10-13T02:25:03;99080.91;;;18.37;100.00
24858;BME280;12935;50.782;6.074;2023-10-13T02:27:33;99078.16;;;18.37;100.00
24858;BME280;12935;50.782;6.074;2023-10-13T02:30:06;99068.94;;;18.40;100.00
24858;BME280;12935;50.782;6.074;2023-10-13T02:32:37;99071.06;;;18.36;100.00
24858;BME280;12935;50.782;6.074;2023-10-13T02:35:05;99061.88;;;18.39;100.00
24858;BME280;12935;50.782;6.074;2023-10-13T02:37:33;99053.41;;;18.43;100.00
24858;BME280;12935;50.782;6.074;2023-10-13T02:40:00;99057.38;;;18.42;100.00
24858;BME280;12935;50.782;6.074;2023-10-13T02:42:25;99052.16;;;18.44;100.00
24858;BME280;12935;50.782;6.074;2023-10-13T02:44:51;99045.41;;;18.45;100.00
24858;BME280;12935;50.782;6.074;2023-10-13T02:47:20;99043.41;;;18.45;100.00
24858;BME280;12935;50.782;6.074;2023-10-13T02:49:48;99043.88;;;18.44;100.00
24858;BME280;12935;50.782;6.074;2023-10-13T02:52:14;99031.91;;;18.47;100.00
24858;BME280;12935;50.782;6.074;2023-10-13T02:54:40;99028.50;;;18.43;100.00
24858;BME280;12935;50.782;6.074;2023-10-13T02:57:13;99023.13;;;18.39;100.00
24858;BME280;12935;50.782;6.074;2023-10-13T02:59:41;99021.44;;;18.42;100.00
24858;BME280;12935;50.782;6.074;2023-10-13T03:02:11;99023.13;;;18.39;100.00
24858;BME280;12935;50.782;6.074;2023-10-13T03:04:54;99004.53;;;18.40;100.00
24858;BME280;12935;50.782;6.074;2023-10-13T03:07:34;99007.00;;;18.38;100.00
24858;BME280;12935;50.782;6.074;2023-10-13T03:10:08;99012.53;;;18.38;100.00
24858;BME280;12935;50.782;6.074;2023-10-13T03:12:37;99012.84;;;18.40;100.00
24858;BME280;12935;50.782;6.074;2023-10-13T03:15:04;99008.84;;;18.41;100.00
24858;BME280;12935;50.782;6.074;2023-10-13T03:17:45;98997.16;;;18.46;100.00
24858;BME280;12935;50.782;6.074;2023-10-13T03:20:12;98995.63;;;18.45;100.00
24858;BME280;12935;50.782;6.074;2023-10-13T03:22:44;98984.88;;;18.38;100.00
24858;BME280;12935;50.782;6.074;2023-10-13T03:25:15;98972.13;;;18.40;100.00
24858;BME280;12935;50.782;6.074;2023-10-13T03:28:02;98974.72;;;18.44;100.00
24858;BME280;12935;50.782;6.074;2023-10-13T03:30:30;98969.50;;;18.46;100.00
24858;BME280;12935;50.782;6.074;2023-10-13T03:33:22;98962.09;;;18.43;100.00
24858;BME280;12935;50.782;6.074;2023-10-13T03:35:54;98958.44;;;18.46;100.00
24858;BME280;12935;50.782;6.074;2023-10-13T03:38:20;98967.94;;;18.45;100.00
24858;BME280;12935;50.782;6.074;2023-10-13T03:40:50;98974.72;;;18.44;100.00
24858;BME280;12935;50.782;6.074;2023-10-13T03:43:30;98971.19;;;18.43;100.00
24858;BME280;12935;50.782;6.074;2023-10-13T03:45:55;98971.50;;;18.45;100.00
24858;BME280;12935;50.782;6.074;2023-10-13T03:48:32;98973.94;;;18.43;100.00
24858;BME280;12935;50.782;6.074;2023-10-13T03:51:06;98971.66;;;18.51;100.00
24858;BME280;12935;50.782;6.074;2023-10-13T03:53:35;98966.28;;;18.56;100.00
24858;BME280;12935;50.782;6.074;2023-10-13T03:56:01;98958.00;;;18.56;100.00
24858;BME280;12935;50.782;6.074;2023-10-13T03:58:57;98953.38;;;18.53;100.00
24858;BME280;12935;50.782;6.074;2023-10-13T04:01:25;98955.69;;;18.55;100.00
24858;BME280;12935;50.782;6.074;2023-10-13T04:04:00;98937.06;;;18.55;100.00
24858;BME280;12935;50.782;6.074;2023-10-13T04:06:31;98945.84;;;18.54;100.00
24858;BME280;12935;50.782;6.074;2023-10-13T04:09:14;98938.31;;;18.54;100.00
24858;BME280;12935;50.782;6.074;2023-10-13T04:12:01;98937.53;;;18.54;100.00
24858;BME280;12935;50.782;6.074;2023-10-13T04:17:15;98922.16;;;18.53;100.00
24858;BME280;12935;50.782;6.074;2023-10-13T04:19:43;98916.16;;;18.54;100.00
24858;BME280;12935;50.782;6.074;2023-10-13T04:22:38;98907.25;;;18.50;100.00
24858;BME280;12935;50.782;6.074;2023-10-13T04:25:23;98908.78;;;18.51;100.00
24858;BME280;12935;50.782;6.074;2023-10-13T04:28:04;98899.25;;;18.52;100.00
24858;BME280;12935;50.782;6.074;2023-10-13T04:33:20;98900.81;;;18.53;100.00
24858;BME280;12935;50.782;6.074;2023-10-13T04:36:06;98894.19;;;18.51;100.00
24858;BME280;12935;50.782;6.074;2023-10-13T04:38:51;98897.13;;;18.56;100.00
24858;BME280;12935;50.782;6.074;2023-10-13T04:44:08;98881.13;;;18.51;100.00
24858;BME280;12935;50.782;6.074;2023-10-13T04:46:53;98883.13;;;18.51;100.00
24858;BME280;12935;50.782;6.074;2023-10-13T04:49:26;98878.34;;;18.51;100.00
24858;BME280;12935;50.782;6.074;2023-10-13T04:52:04;98890.66;;;18.50;100.00
24858;BME280;12935;50.782;6.074;2023-10-13T04:54:34;98892.34;;;18.57;100.00
24858;BME280;12935;50.782;6.074;2023-10-13T04:57:13;98894.34;;;18.66;100.00
24858;BME280;12935;50.782;6.074;2023-10-13T04:59:48;98893.59;;;18.65;100.00
24858;BME280;12935;50.782;6.074;2023-10-13T05:02:33;98893.75;;;18.62;100.00
24858;BME280;12935;50.782;6.074;2023-10-13T05:05:07;98889.28;;;18.64;100.00
24858;BME280;12935;50.782;6.074;2023-10-13T05:07:39;98894.50;;;18.71;100.00
24858;BME280;12935;50.782;6.074;2023-10-13T05:10:23;98885.75;;;18.73;100.00
24858;BME280;12935;50.782;6.074;2023-10-13T05:13:07;98891.44;;;18.60;100.00
24858;BME280;12935;50.782;6.074;2023-10-13T05:15:51;98887.28;;;18.55;100.00
24858;BME280;12935;50.782;6.074;2023-10-13T05:18:35;98889.59;;;18.66;100.00
24858;BME280;12935;50.782;6.074;2023-10-13T05:21:20;98878.69;;;18.72;100.00
24858;BME280;12935;50.782;6.074;2023-10-13T05:24:05;98884.97;;;18.72;100.00
24858;BME280;12935;50.782;6.074;2023-10-13T05:26:48;98884.50;;;18.65;100.00
24858;BME280;12935;50.782;6.074;2023-10-13T05:29:33;98873.72;;;18.76;100.00
24858;BME280;12935;50.782;6.074;2023-10-13T05:32:16;98878.66;;;18.81;100.00
24858;BME280;12935;50.782;6.074;2023-10-13T05:35:01;98880.03;;;18.85;100.00
24858;BME280;12935;50.782;6.074;2023-10-13T05:37:45;98859.72;;;18.88;100.00
24858;BME280;12935;50.782;6.074;2023-10-13T05:40:29;98860.19;;;18.87;100.00
24858;BME280;12935;50.782;6.074;2023-10-13T05:43:13;98867.53;;;18.90;100.00
24858;BME280;12935;50.782;6.074;2023-10-13T05:46:04;98861.09;;;18.93;100.00
24858;BME280;12935;50.782;6.074;2023-10-13T05:48:48;98858.78;;;18.91;100.00
24858;BME280;12935;50.782;6.074;2023-10-13T05:51:22;98853.09;;;18.95;100.00
24858;BME280;12935;50.782;6.074;2023-10-13T05:54:06;98840.31;;;18.98;100.00
24858;BME280;12935;50.782;6.074;2023-10-13T05:56:44;98854.66;;;18.87;100.00
24858;BME280;12935;50.782;6.074;2023-10-13T05:59:29;98844.00;;;18.95;100.00
24858;BME280;12935;50.782;6.074;2023-10-13T06:02:15;98833.53;;;18.99;100.00
24858;BME280;12935;50.782;6.074;2023-10-13T06:05:03;98847.03;;;19.06;100.00
24858;BME280;12935;50.782;6.074;2023-10-13T06:07:47;98842.00;;;19.04;100.00
24858;BME280;12935;50.782;6.074;2023-10-13T06:10:31;98829.78;;;19.11;100.00
24858;BME280;12935;50.782;6.074;2023-10-13T06:13:15;98822.72;;;19.10;100.00
24858;BME280;12935;50.782;6.074;2023-10-13T06:15:59;98821.34;;;19.05;100.00
24858;BME280;12935;50.782;6.074;2023-10-13T06:18:43;98829.97;;;19.07;100.00
24858;BME280;12935;50.782;6.074;2023-10-13T06:21:27;98815.19;;;19.10;100.00
24858;BME280;12935;50.782;6.074;2023-10-13T06:24:11;98805.66;;;19.11;100.00
24858;BME280;12935;50.782;6.074;2023-10-13T06:26:54;98800.41;;;19.13;100.00
24858;BME280;12935;50.782;6.074;2023-10-13T06:29:38;98800.72;;;19.15;100.00
24858;BME280;12935;50.782;6.074;2023-10-13T06:32:04;98803.31;;;19.19;100.00
24858;BME280;12935;50.782;6.074;2023-10-13T06:34:36;98792.25;;;19.19;100.00
24858;BME280;12935;50.782;6.074;2023-10-13T06:37:13;98800.81;;;19.21;100.00
24858;BME280;12935;50.782;6.074;2023-10-13T06:40:02;98798.19;;;19.26;100.00
24858;BME280;12935;50.782;6.074;2023-10-13T06:42:32;98796.78;;;19.31;100.00
24858;BME280;12935;50.782;6.074;2023-10-13T06:45:00;98787.06;;;19.36;100.00
24858;BME280;12935;50.782;6.074;2023-10-13T06:47:36;98783.53;;;19.35;100.00
24858;BME280;12935;50.782;6.074;2023-10-13T06:50:09;98787.53;;;19.34;100.00
24858;BME280;12935;50.782;6.074;2023-10-13T06:52:42;98789.66;;;19.39;100.00
24858;BME280;12935;50.782;6.074;2023-10-13T06:55:07;98787.94;;;19.42;100.00
24858;BME280;12935;50.782;6.074;2023-10-13T06:57:35;98766.91;;;19.35;100.00
24858;BME280;12935;50.782;6.074;2023-10-13T07:00:07;98794.72;;;19.41;100.00
24858;BME280;12935;50.782;6.074;2023-10-13T07:02:36;98781.16;;;19.43;100.00
24858;BME280;12935;50.782;6.074;2023-10-13T07:05:01;98785.00;;;19.45;100.00
24858;BME280;12935;50.782;6.074;2023-10-13T07:07:36;98783.78;;;19.46;100.00
24858;BME280;12935;50.782;6.074;2023-10-13T07:10:02;98789.00;;;19.44;100.00
24858;BME280;12935;50.782;6.074;2023-10-13T07:12:27;98792.38;;;19.48;100.00
24858;BME280;12935;50.782;6.074;2023-10-13T07:14:53;98784.19;;;19.54;100.00
24858;BME280;12935;50.782;6.074;2023-10-13T07:17:28;98795.56;;;19.56;100.00
24858;BME280;12935;50.782;6.074;2023-10-13T07:19:58;98788.19;;;19.53;100.00
24858;BME280;12935;50.782;6.074;2023-10-13T07:22:40;98796.72;;;19.49;100.00
24858;BME280;12935;50.782;6.074;2023-10-13T07:25:10;98788.69;;;19.51;100.00
24858;BME280;12935;50.782;6.074;2023-10-13T07:27:43;98789.88;;;19.59;100.00
24858;BME280;12935;50.782;6.074;2023-10-13T07:30:09;98801.09;;;19.65;100.00
24858;BME280;12935;50.782;6.074;2023-10-13T07:32:37;98798.59;;;19.67;100.00
24858;BME280;12935;50.782;6.074;2023-10-13T07:35:02;98802.25;;;19.73;100.00
24858;BME280;12935;50.782;6.074;2023-10-13T07:37:33;98791.03;;;19.68;100.00
24858;BME280;12935;50.782;6.074;2023-10-13T07:39:59;98801.31;;;19.76;100.00
24858;BME280;12935;50.782;6.074;2023-10-13T07:42:25;98793.28;;;19.78;100.00
24858;BME280;12935;50.782;6.074;2023-10-13T07:44:57;98785.06;;;19.84;100.00
24858;BME280;12935;50.782;6.074;2023-10-13T07:47:23;98793.09;;;19.82;100.00
24858;BME280;12935;50.782;6.074;2023-10-13T07:49:50;98791.88;;;19.83;100.00
24858;BME280;12935;50.782;6.074;2023-10-13T07:52:16;98787.78;;;19.93;100.00
24858;BME280;12935;50.782;6.074;2023-10-13T07:54:48;98787.47;;;19.91;100.00
24858;BME280;12935;50.782;6.074;2023-10-13T07:57:15;98802.72;;;19.95;100.00
24858;BME280;12935;50.782;6.074;2023-10-13T07:59:43;98788.94;;;20.01;100.00
24858;BME280;12935;50.782;6.074;2023-10-13T08:02:18;98778.72;;;20.07;100.00
24858;BME280;12935;50.782;6.074;2023-10-13T08:05:02;98771.94;;;20.08;100.00
24858;BME280;12935;50.782;6.074;2023-10-13T08:07:30;98770.22;;;20.11;100.00
24858;BME280;12935;50.782;6.074;2023-10-13T08:09:56;98773.84;;;20.17;100.00
24858;BME280;12935;50.782;6.074;2023-10-13T08:12:24;98760.50;;;20.30;100.00
24858;BME280;12935;50.782;6.074;2023-10-13T08:14:49;98765.34;;;20.35;100.00
24858;BME280;12935;50.782;6.074;2023-10-13T08:17:34;98764.78;;;20.31;100.00
24858;BME280;12935;50.782;6.074;2023-10-13T08:19:59;98755.31;;;20.23;100.00
24858;BME280;12935;50.782;6.074;2023-10-13T08:22:36;98761.72;;;20.29;100.00
24858;BME280;12935;50.782;6.074;2023-10-13T08:25:03;98761.91;;;20.25;100.00
24858;BME280;12935;50.782;6.074;2023-10-13T08:27:49;98769.00;;;20.26;100.00
24858;BME280;12935;50.782;6.074;2023-10-13T08:30:30;98773.34;;;20.42;100.00
24858;BME280;12935;50.782;6.074;2023-10-13T08:32:55;98770.38;;;20.46;100.00
24858;BME280;12935;50.782;6.074;2023-10-13T08:35:25;98773.31;;;20.72;100.00
24858;BME280;12935;50.782;6.074;2023-10-13T08:38:03;98766.69;;;20.84;100.00
24858;BME280;12935;50.782;6.074;2023-10-13T08:40:30;98760.56;;;20.80;100.00
24858;BME280;12935;50.782;6.074;2023-10-13T08:43:14;98759.22;;;20.90;100.00
24858;BME280;12935;50.782;6.074;2023-10-13T08:45:42;98767.09;;;20.77;100.00
24858;BME280;12935;50.782;6.074;2023-10-13T08:48:09;98773.69;;;20.79;100.00
24858;BME280;12935;50.782;6.074;2023-10-13T08:50:40;98769.31;;;20.73;100.00
24858;BME280;12935;50.782;6.074;2023-10-13T08:58:48;98766.88;;;20.95;100.00
24858;BME280;12935;50.782;6.074;2023-10-13T09:01:35;98769.06;;;21.06;100.00
24858;BME280;12935;50.782;6.074;2023-10-13T09:04:14;98756.84;;;21.18;100.00
24858;BME280;12935;50.782;6.074;2023-10-13T09:09:12;98758.28;;;21.28;100.00
24858;BME280;12935;50.782;6.074;2023-10-13T09:11:51;98762.69;;;21.34;100.00
24858;BME280;12935;50.782;6.074;2023-10-13T09:14:30;98752.41;;;21.41;100.00
24858;BME280;12935;50.782;6.074;2023-10-13T09:17:05;98749.78;;;21.52;100.00
24858;BME280;12935;50.782;6.074;2023-10-13T09:19:49;98748.94;;;21.66;100.00
24858;BME280;12935;50.782;6.074;2023-10-13T09:22:25;98742.44;;;21.75;100.00
24858;BME280;12935;50.782;6.074;2023-10-13T09:25:00;98746.66;;;21.90;100.00
24858;BME280;12935;50.782;6.074;2023-10-13T09:27:27;98733.69;;;22.02;100.00
24858;BME280;12935;50.782;6.074;2023-10-13T09:30:00;98730.31;;;22.18;100.00
24858;BME280;12935;50.782;6.074;2023-10-13T09:32:33;98730.03;;;22.42;100.00
24858;BME280;12935;50.782;6.074;2023-10-13T09:35:13;98720.00;;;22.82;100.00
24858;BME280;12935;50.782;6.074;2023-10-13T09:37:42;98725.25;;;23.11;97.41
24858;BME280;12935;50.782;6.074;2023-10-13T09:40:08;98716.22;;;23.33;93.46
24858;BME280;12935;50.782;6.074;2023-10-13T09:42:51;98729.84;;;23.20;92.28
24858;BME280;12935;50.782;6.074;2023-10-13T09:45:17;98727.94;;;23.48;92.03
24858;BME280;12935;50.782;6.074;2023-10-13T09:47:46;98714.94;;;23.28;93.10
24858;BME280;12935;50.782;6.074;2023-10-13T09:50:17;98722.06;;;23.35;92.59
24858;BME280;12935;50.782;6.074;2023-10-13T09:52:50;98713.59;;;23.66;91.64
24858;BME280;12935;50.782;6.074;2023-10-13T09:55:26;98712.16;;;23.88;87.76
24858;BME280;12935;50.782;6.074;2023-10-13T09:58:00;98713.69;;;24.11;87.74
24858;BME280;12935;50.782;6.074;2023-10-13T10:00:35;98719.28;;;24.11;85.60
24858;BME280;12935;50.782;6.074;2023-10-13T10:03:12;98705.38;;;24.44;83.89
24858;BME280;12935;50.782;6.074;2023-10-13T10:05:57;98700.81;;;24.30;80.59
24858;BME280;12935;50.782;6.074;2023-10-13T10:08:29;98696.22;;;24.16;81.24
24858;BME280;12935;50.782;6.074;2023-10-13T10:13:47;98702.34;;;24.54;81.55
24858;BME280;12935;50.782;6.074;2023-10-13T10:16:21;98699.28;;;24.57;80.96
24858;BME280;12935;50.782;6.074;2023-10-13T10:19:00;98698.28;;;24.60;81.25
24858;BME280;12935;50.782;6.074;2023-10-13T10:21:36;98697.25;;;24.69;79.05
24858;BME280;12935;50.782;6.074;2023-10-13T10:24:13;98694.47;;;24.69;77.56
24858;BME280;12935;50.782;6.074;2023-10-13T10:26:50;98692.19;;;24.56;78.93
24858;BME280;12935;50.782;6.074;2023-10-13T10:29:17;98689.13;;;24.60;76.27
24858;BME280;12935;50.782;6.074;2023-10-13T10:31:42;98688.88;;;24.58;78.44
24858;BME280;12935;50.782;6.074;2023-10-13T10:34:17;98702.28;;;24.93;78.60
24858;BME280;12935;50.782;6.074;2023-10-13T10:36:53;98689.06;;;25.04;75.00
24858;BME280;12935;50.782;6.074;2023-10-13T10:39:18;98687.50;;;25.26;71.37
24858;BME280;12935;50.782;6.074;2023-10-13T10:41:44;98677.78;;;25.38;72.39
24858;BME280;12935;50.782;6.074;2023-10-13T10:44:11;98668.19;;;25.28;70.84
24858;BME280;12935;50.782;6.074;2023-10-13T10:47:10;98662.19;;;24.85;72.07
24858;BME280;12935;50.782;6.074;2023-10-13T10:49:38;98666.78;;;24.60;73.94
24858;BME280;12935;50.782;6.074;2023-10-13T10:52:09;98652.84;;;24.43;74.81
24858;BME280;12935;50.782;6.074;2023-10-13T10:54:39;98657.91;;;24.28;75.35
24858;BME280;12935;50.782;6.074;2023-10-13T10:57:09;98652.06;;;24.26;76.78
24858;BME280;12935;50.782;6.074;2023-10-13T10:59:42;98645.22;;;24.21;75.74
24858;BME280;12935;50.782;6.074;2023-10-13T11:02:07;98649.50;;;24.17;76.18
24858;BME280;12935;50.782;6.074;2023-10-13T11:04:34;98653.03;;;23.95;75.54
24858;BME280;12935;50.782;6.074;2023-10-13T11:07:06;98643.91;;;23.89;75.92
24858;BME280;12935;50.782;6.074;2023-10-13T11:09:33;98641.06;;;23.66;77.53
24858;BME280;12935;50.782;6.074;2023-10-13T11:12:11;98659.06;;;23.65;79.39
24858;BME280;12935;50.782;6.074;2023-10-13T11:14:41;98641.06;;;23.55;78.67
24858;BME280;12935;50.782;6.074;2023-10-13T11:17:06;98648.59;;;23.43;78.48
24858;BME280;12935;50.782;6.074;2023-10-13T11:19:44;98647.06;;;23.42;78.07
24858;BME280;12935;50.782;6.074;2023-10-13T11:22:14;98648.56;;;23.38;77.14
24858;BME280;12935;50.782;6.074;2023-10-13T11:25:03;98647.31;;;23.39;77.42
24858;BME280;12935;50.782;6.074;2023-10-13T11:27:41;98639.22;;;23.41;76.40
24858;BME280;12935;50.782;6.074;2023-10-13T11:30:20;98624.47;;;23.29;76.83
24858;BME280;12935;50.782;6.074;2023-10-13T11:33:03;98632.78;;;23.18;76.98
24858;BME280;12935;50.782;6.074;2023-10-13T11:35:40;98623.91;;;23.20;77.16
24858;BME280;12935;50.782;6.074;2023-10-13T11:38:28;98605.91;;;23.15;77.15
24858;BME280;12935;50.782;6.074;2023-10-13T11:41:00;98614.22;;;23.04;77.21
24858;BME280;12935;50.782;6.074;2023-10-13T11:43:38;98616.78;;;23.07;76.68
24858;BME280;12935;50.782;6.074;2023-10-13T11:46:17;98611.41;;;22.98;76.70
24858;BME280;12935;50.782;6.074;2023-10-13T11:49:06;98610.91;;;23.00;76.22
24858;BME280;12935;50.782;6.074;2023-10-13T11:51:41;98613.97;;;23.02;76.86
24858;BME280;12935;50.782;6.074;2023-10-13T11:54:19;98596.97;;;22.94;77.16
24858;BME280;12935;50.782;6.074;2023-10-13T11:56:48;98584.75;;;22.86;75.13
24858;BME280;12935;50.782;6.074;2023-10-13T11:59:14;98589.66;;;22.97;74.93
24858;BME280;12935;50.782;6.074;2023-10-13T12:01:47;98615.25;;;23.06;74.97
24858;BME280;12935;50.782;6.074;2023-10-13T12:04:35;98584.91;;;23.20;73.34
24858;BME280;12935;50.782;6.074;2023-10-13T12:07:17;98592.25;;;23.23;72.14
24858;BME280;12935;50.782;6.074;2023-10-13T12:09:46;98589.75;;;23.25;72.24
24858;BME280;12935;50.782;6.074;2023-10-13T12:12:25;98588.94;;;23.13;71.42
24858;BME280;12935;50.782;6.074;2023-10-13T12:14:51;98589.44;;;23.17;71.58
24858;BME280;12935;50.782;6.074;2023-10-13T12:17:29;98601.38;;;23.23;71.38
24858;BME280;12935;50.782;6.074;2023-10-13T12:20:04;98584.09;;;23.08;70.78
24858;BME280;12935;50.782;6.074;2023-10-13T12:22:39;98579.03;;;23.06;72.18
24858;BME280;12935;50.782;6.074;2023-10-13T12:25:05;98581.06;;;23.06;71.58
24858;BME280;12935;50.782;6.074;2023-10-13T12:27:47;98571.16;;;23.05;72.65
24858;BME280;12935;50.782;6.074;2023-10-13T12:30:14;98567.66;;;23.10;70.89
24858;BME280;12935;50.782;6.074;2023-10-13T12:32:42;98565.38;;;23.20;71.74
24858;BME280;12935;50.782;6.074;2023-10-13T12:35:19;98568.47;;;23.27;69.24
24858;BME280;12935;50.782;6.074;2023-10-13T12:38:00;98566.19;;;23.26;69.72
24858;BME280;12935;50.782;6.074;2023-10-13T12:40:33;98552.94;;;23.15;69.79
24858;BME280;12935;50.782;6.074;2023-10-13T12:43:17;98541.59;;;23.24;70.69
24858;BME280;12935;50.782;6.074;2023-10-13T12:46:02;98552.75;;;23.30;69.27
24858;BME280;12935;50.782;6.074;2023-10-13T12:48:46;98561.59;;;23.23;70.01
24858;BME280;12935;50.782;6.074;2023-10-13T12:51:23;98554.22;;;23.08;70.59
24858;BME280;12935;50.782;6.074;2023-10-13T12:53:57;98545.84;;;23.03;72.13
24858;BME280;12935;50.782;6.074;2023-10-13T12:56:30;98552.91;;;22.98;71.74
24858;BME280;12935;50.782;6.074;2023-10-13T12:58:55;98553.16;;;23.00;72.76
24858;BME280;12935;50.782;6.074;2023-10-13T13:01:23;98559.00;;;23.02;72.73
24858;BME280;12935;50.782;6.074;2023-10-13T13:03:52;98552.00;;;23.29;71.36
24858;BME280;12935;50.782;6.074;2023-10-13T13:06:24;98562.38;;;23.29;71.19
24858;BME280;12935;50.782;6.074;2023-10-13T13:08:54;98558.81;;;23.23;72.54
24858;BME280;12935;50.782;6.074;2023-10-13T13:11:19;98554.03;;;23.40;69.88
24858;BME280;12935;50.782;6.074;2023-10-13T13:13:44;98564.41;;;23.34;70.60
24858;BME280;12935;50.782;6.074;2023-10-13T13:16:14;98557.06;;;23.25;70.38
24858;BME280;12935;50.782;6.074;2023-10-13T13:18:40;98571.94;;;23.05;70.45
24858;BME280;12935;50.782;6.074;2023-10-13T13:21:08;98570.72;;;23.23;70.19
24858;BME280;12935;50.782;6.074;2023-10-13T13:23:38;98558.53;;;23.15;71.04
24858;BME280;12935;50.782;6.074;2023-10-13T13:26:07;98563.34;;;23.15;70.91
24858;BME280;12935;50.782;6.074;2023-10-13T13:28:41;98560.53;;;22.98;71.55
24858;BME280;12935;50.782;6.074;2023-10-13T13:31:08;98570.56;;;22.84;72.54
24858;BME280;12935;50.782;6.074;2023-10-13T13:33:35;98566.78;;;22.82;72.99
24858;BME280;12935;50.782;6.074;2023-10-13T13:36:07;98555.88;;;22.84;73.97
24858;BME280;12935;50.782;6.074;2023-10-13T13:38:33;98551.06;;;22.84;73.58
24858;BME280;12935;50.782;6.074;2023-10-13T13:41:02;98558.09;;;22.74;71.89
24858;BME280;12935;50.782;6.074;2023-10-13T13:43:29;98552.00;;;22.64;73.94
24858;BME280;12935;50.782;6.074;2023-10-13T13:46:04;98542.88;;;22.69;74.29
24858;BME280;12935;50.782;6.074;2023-10-13T13:48:37;98543.59;;;22.59;73.55